Time;durP1;ratioP1;P1;durP2;ratioP2;P2;SDS_P1;SDS_P2;PMS_P1;PMS_P2;Temp;Humidity;BMP_temperature;BMP_pressure;BME280_temperature;BME280_humidity;BME280_pressure;Samples;Min_cycle;Max_cycle;Signal;HPM_P1;HPM_P2
2024/01/11 00:02:18;;;;;;;99.63;22.00;;;-1.80;99.90;;;;;;5118556;27;20241;-79
2024/01/11 00:04:46;;;;;;;27.63;17.07;;;-1.70;99.90;;;;;;5072884;28;20305;-78
2024/01/11 00:07:13;;;;;;;29.57;17.37;;;-1.70;99.90;;;;;;5071069;28;20698;-78
2024/01/11 00:09:41;;;;;;;34.93;17.30;;;-1.70;99.90;;;;;;5074808;28;20228;-80
2024/01/11 00:12:08;;;;;;;33.07;17.90;;;-1.70;99.90;;;;;;5069033;28;20228;-79
2024/01/11 00:14:35;;;;;;;56.50;19.20;;;-1.60;99.90;;;;;;5073095;28;20881;-79
2024/01/11 00:17:02;;;;;;;29.70;17.57;;;-1.60;99.90;;;;;;5074032;28;20251;-79
2024/01/11 00:19:29;;;;;;;133.77;22.53;;;-1.60;99.90;;;;;;5075974;28;20275;-79
2024/01/11 00:21:57;;;;;;;44.27;18.20;;;-1.50;99.90;;;;;;5075852;28;20227;-80
2024/01/11 00:24:24;;;;;;;60.03;18.83;;;-1.50;99.90;;;;;;5071936;28;20278;-79
2024/01/11 00:26:51;;;;;;;76.83;20.27;;;-1.50;99.90;;;;;;5070073;28;20222;-80
2024/01/11 00:29:17;;;;;;;28.17;16.70;;;-1.40;99.90;;;;;;5075595;28;20275;-79
2024/01/11 00:31:44;;;;;;;78.30;20.17;;;-1.40;99.90;;;;;;5074372;28;20234;-80
2024/01/11 00:34:11;;;;;;;71.53;20.53;;;-1.40;99.90;;;;;;5072221;28;20238;-80
2024/01/11 00:36:38;;;;;;;50.07;18.27;;;-1.40;99.90;;;;;;5080244;28;20226;-78
2024/01/11 00:39:06;;;;;;;95.97;20.83;;;-1.40;99.90;;;;;;5078360;28;20911;-78
2024/01/11 00:41:33;;;;;;;72.83;20.70;;;-1.40;99.90;;;;;;5075789;28;20231;-78
2024/01/11 00:44:00;;;;;;;73.27;20.50;;;-1.40;99.90;;;;;;5077376;28;20230;-78
2024/01/11 00:46:27;;;;;;;82.93;20.80;;;-1.40;99.90;;;;;;5069116;28;20226;-79
2024/01/11 00:48:54;;;;;;;191.33;25.60;;;-1.40;99.90;;;;;;5073682;28;20217;-78
2024/01/11 00:51:21;;;;;;;61.53;19.97;;;-1.40;99.90;;;;;;5073818;28;20318;-78
2024/01/11 00:53:48;;;;;;;88.43;20.47;;;-1.40;99.90;;;;;;5075934;28;20234;-79
2024/01/11 00:56:20;;;;;;;109.10;20.97;;;-1.40;99.90;;;;;;5079685;28;20249;-79
2024/01/11 00:58:46;;;;;;;144.87;22.53;;;-1.40;99.90;;;;;;5099209;27;20314;-80
2024/01/11 01:01:13;;;;;;;139.77;23.37;;;-1.40;99.90;;;;;;5074346;28;20225;-79
2024/01/11 01:03:41;;;;;;;117.80;21.97;;;-1.40;99.90;;;;;;5081280;27;20222;-79
2024/01/11 01:06:08;;;;;;;53.93;18.33;;;-1.40;99.90;;;;;;5075878;27;20214;-79
2024/01/11 01:08:35;;;;;;;176.90;26.07;;;-1.40;99.90;;;;;;5088715;27;20650;-79
2024/01/11 01:11:02;;;;;;;113.33;22.17;;;-1.50;99.90;;;;;;5087660;27;20631;-80
2024/01/11 01:13:30;;;;;;;56.23;20.53;;;-1.40;99.90;;;;;;5071681;27;20218;-79
2024/01/11 01:15:57;;;;;;;37.87;19.13;;;-1.40;99.90;;;;;;5084785;27;20964;-79
2024/01/11 01:18:24;;;;;;;52.87;19.60;;;-1.40;99.90;;;;;;5094428;28;20913;-79
2024/01/11 01:20:51;;;;;;;101.57;21.67;;;-1.40;99.90;;;;;;5083670;28;20306;-79
2024/01/11 01:23:18;;;;;;;32.00;17.93;;;-1.50;99.90;;;;;;5070474;27;20948;-79
2024/01/11 01:25:46;;;;;;;41.77;17.57;;;-1.50;99.90;;;;;;5074046;27;20223;-79
2024/01/11 01:28:12;;;;;;;33.97;17.40;;;-1.50;99.90;;;;;;5069794;27;20331;-79
2024/01/11 01:30:40;;;;;;;59.80;19.23;;;-1.50;99.90;;;;;;5089888;28;21073;-79
2024/01/11 01:33:07;;;;;;;66.93;19.40;;;-1.60;99.90;;;;;;5067159;27;20234;-79
2024/01/11 01:35:34;;;;;;;74.43;19.60;;;-1.60;99.90;;;;;;5086384;27;20657;-78
2024/01/11 01:38:02;;;;;;;150.70;21.97;;;-1.60;99.90;;;;;;5090835;27;20233;-78
2024/01/11 01:40:30;;;;;;;69.27;17.50;;;-1.60;99.90;;;;;;5067362;27;20226;-78
2024/01/11 01:42:59;;;;;;;51.67;17.87;;;-1.60;99.90;;;;;;5076681;28;20239;-79
2024/01/11 01:45:26;;;;;;;78.87;18.90;;;-1.60;99.90;;;;;;5076255;27;20292;-80
2024/01/11 01:47:56;;;;;;;147.43;22.93;;;-1.60;99.90;;;;;;5079595;27;20317;-78
2024/01/11 01:50:23;;;;;;;63.23;17.50;;;-1.70;99.90;;;;;;5074233;28;20321;-79
2024/01/11 01:52:51;;;;;;;63.10;17.13;;;-1.60;99.90;;;;;;5091611;27;20226;-78
2024/01/11 01:55:19;;;;;;;127.43;22.57;;;-1.70;99.90;;;;;;5081278;28;20223;-79
2024/01/11 01:57:47;;;;;;;153.03;23.60;;;-1.70;99.90;;;;;;5076680;28;20214;-78
2024/01/11 02:00:15;;;;;;;36.33;17.20;;;-1.70;99.90;;;;;;5070360;28;20769;-78
2024/01/11 02:02:44;;;;;;;51.03;16.67;;;-1.70;99.90;;;;;;5078258;28;20239;-79
2024/01/11 02:05:14;;;;;;;29.17;16.47;;;-1.70;99.90;;;;;;5074898;28;20306;-80
2024/01/11 02:07:41;;;;;;;61.07;17.53;;;-1.70;99.90;;;;;;5076867;28;20218;-78
2024/01/11 02:10:09;;;;;;;27.40;16.53;;;-1.70;99.90;;;;;;5073071;28;20234;-79
2024/01/11 02:12:37;;;;;;;63.23;17.53;;;-1.80;99.90;;;;;;5109124;27;20251;-79
2024/01/11 02:15:05;;;;;;;44.47;17.00;;;-1.70;99.90;;;;;;5083923;28;20769;-79
2024/01/11 02:17:32;;;;;;;83.73;20.00;;;-1.70;99.90;;;;;;5076730;28;20277;-78
2024/01/11 02:19:59;;;;;;;30.87;16.90;;;-1.80;99.90;;;;;;5071144;28;20222;-79
2024/01/11 02:22:32;;;;;;;96.77;19.93;;;-1.80;99.90;;;;;;5076027;27;20234;-79
2024/01/11 02:25:00;;;;;;;30.20;17.23;;;-1.70;99.90;;;;;;5073401;28;20303;-80
2024/01/11 02:27:27;;;;;;;30.87;17.47;;;-1.70;99.90;;;;;;5073437;28;20242;-80
2024/01/11 02:29:54;;;;;;;134.37;21.83;;;-1.70;99.90;;;;;;5070423;28;20227;-80
2024/01/11 02:32:22;;;;;;;32.23;17.03;;;-1.70;99.90;;;;;;5074224;28;20235;-79
2024/01/11 02:34:49;;;;;;;86.33;20.30;;;-1.70;99.90;;;;;;5083815;28;20235;-80
2024/01/11 02:37:16;;;;;;;30.37;18.27;;;-1.70;99.90;;;;;;5084888;27;20747;-80
2024/01/11 02:39:43;;;;;;;51.47;20.33;;;-1.80;99.90;;;;;;5075827;28;20305;-80
2024/01/11 02:42:12;;;;;;;61.80;19.90;;;-1.80;99.90;;;;;;5078991;27;20284;-79
2024/01/11 02:44:39;;;;;;;64.13;20.93;;;-1.80;99.90;;;;;;5078098;28;20221;-79
2024/01/11 02:47:06;;;;;;;36.37;20.07;;;-1.80;99.90;;;;;;5074065;27;20735;-79
2024/01/11 02:49:33;;;;;;;45.63;20.60;;;-1.80;99.90;;;;;;5076643;28;20221;-79
2024/01/11 02:52:00;;;;;;;33.97;19.97;;;-1.80;99.90;;;;;;5076354;27;20728;-79
2024/01/11 02:54:27;;;;;;;43.13;19.80;;;-1.80;99.90;;;;;;5075221;28;20779;-79
2024/01/11 02:56:54;;;;;;;48.03;19.67;;;-1.80;99.90;;;;;;5075525;28;20229;-79
2024/01/11 02:59:22;;;;;;;40.03;20.73;;;-1.90;99.90;;;;;;5074445;27;20906;-79
2024/01/11 03:01:49;;;;;;;37.07;19.03;;;-1.90;99.90;;;;;;5081596;27;20228;-79
2024/01/11 03:04:16;;;;;;;70.93;21.67;;;-1.90;99.90;;;;;;5092200;27;20214;-80
2024/01/11 03:06:43;;;;;;;114.30;24.30;;;-1.90;99.90;;;;;;5070323;28;20238;-79
2024/01/11 03:09:11;;;;;;;44.93;20.10;;;-1.90;99.90;;;;;;5085444;28;20246;-80
2024/01/11 03:11:38;;;;;;;42.90;20.73;;;-1.90;99.90;;;;;;5102249;27;20221;-80
2024/01/11 03:14:05;;;;;;;47.33;21.13;;;-1.90;99.90;;;;;;5079384;27;20225;-79
2024/01/11 03:16:33;;;;;;;218.47;30.00;;;-1.90;99.90;;;;;;5080708;27;20236;-80
2024/01/11 03:19:01;;;;;;;77.00;22.97;;;-1.90;99.90;;;;;;5081467;28;20275;-80
2024/01/11 03:21:28;;;;;;;41.93;21.20;;;-1.90;99.90;;;;;;5069969;28;20227;-80
2024/01/11 03:23:54;;;;;;;42.67;22.03;;;-1.90;99.90;;;;;;5076901;28;20271;-80
2024/01/11 03:26:20;;;;;;;49.83;21.40;;;-1.90;99.90;;;;;;5090316;28;20871;-80
2024/01/11 03:28:48;;;;;;;49.43;21.83;;;-1.90;99.90;;;;;;5096035;28;20222;-79
2024/01/11 03:31:15;;;;;;;60.07;22.97;;;-1.90;99.90;;;;;;5092024;28;20229;-80
2024/01/11 03:33:44;;;;;;;48.90;23.27;;;-1.80;99.90;;;;;;5089717;28;20317;-80
2024/01/11 03:36:12;;;;;;;39.67;21.67;;;-1.80;99.90;;;;;;5078370;28;20278;-79
2024/01/11 03:38:39;;;;;;;41.77;22.47;;;-1.80;99.90;;;;;;5073860;27;20230;-80
2024/01/11 03:41:09;;;;;;;40.83;21.93;;;-1.80;99.90;;;;;;5071664;27;20279;-79
2024/01/11 03:43:36;;;;;;;79.53;22.70;;;-1.80;99.90;;;;;;5081367;28;20220;-80
2024/01/11 03:46:04;;;;;;;38.27;21.53;;;-1.80;99.90;;;;;;5073665;28;20301;-79
2024/01/11 03:48:31;;;;;;;49.13;22.13;;;-1.80;99.90;;;;;;5076806;28;20229;-79
2024/01/11 03:50:59;;;;;;;38.47;19.80;;;-1.70;99.90;;;;;;5071085;28;20279;-79
2024/01/11 03:53:26;;;;;;;39.73;19.10;;;-1.70;99.90;;;;;;5071946;28;20233;-79
2024/01/11 03:55:52;;;;;;;89.27;21.23;;;-1.70;99.90;;;;;;5074475;28;20231;-79
2024/01/11 03:58:20;;;;;;;90.37;21.70;;;-1.70;99.90;;;;;;5076717;28;20849;-80
2024/01/11 04:00:46;;;;;;;44.40;18.87;;;-1.70;99.90;;;;;;5071901;28;20252;-79
2024/01/11 04:03:13;;;;;;;71.60;21.23;;;-1.70;99.90;;;;;;5075613;28;20227;-79
2024/01/11 04:05:40;;;;;;;52.43;19.93;;;-1.70;99.90;;;;;;5069873;28;20708;-80
2024/01/11 04:08:09;;;;;;;99.47;22.63;;;-1.70;99.90;;;;;;5073028;28;20230;-80
2024/01/11 04:10:36;;;;;;;31.77;18.63;;;-1.70;99.90;;;;;;5074818;28;20232;-79
2024/01/11 04:13:04;;;;;;;55.57;19.37;;;-1.70;99.90;;;;;;5071534;28;20299;-79
2024/01/11 04:15:30;;;;;;;59.30;20.13;;;-1.70;99.90;;;;;;5097509;28;20879;-80
2024/01/11 04:17:57;;;;;;;71.30;20.83;;;-1.70;99.90;;;;;;5078799;28;20223;-79
2024/01/11 04:20:25;;;;;;;78.10;20.50;;;-1.70;99.90;;;;;;5106658;27;20375;-79
2024/01/11 04:22:52;;;;;;;50.07;19.33;;;-1.60;99.90;;;;;;5068672;28;20322;-79
2024/01/11 04:25:21;;;;;;;94.80;21.37;;;-1.60;99.90;;;;;;5065866;28;20223;-79
2024/01/11 04:27:48;;;;;;;30.67;18.53;;;-1.60;99.90;;;;;;5065079;28;20223;-79
2024/01/11 04:30:15;;;;;;;32.33;18.90;;;-1.60;99.90;;;;;;5068856;28;20246;-79
2024/01/11 04:32:42;;;;;;;42.37;19.37;;;-1.60;99.90;;;;;;5069341;28;20883;-79
2024/01/11 04:35:10;;;;;;;34.20;18.90;;;-1.60;99.90;;;;;;5070729;28;20274;-79
2024/01/11 04:37:37;;;;;;;36.87;17.27;;;-1.60;99.90;;;;;;5070649;28;20299;-79
2024/01/11 04:40:05;;;;;;;28.53;17.53;;;-1.60;99.90;;;;;;5073777;28;20983;-79
2024/01/11 04:42:33;;;;;;;33.80;17.87;;;-1.60;99.90;;;;;;5071828;28;20670;-79
2024/01/11 04:45:00;;;;;;;33.87;19.03;;;-1.60;99.90;;;;;;5073357;28;20821;-79
2024/01/11 04:47:27;;;;;;;41.37;18.47;;;-1.50;99.90;;;;;;5070789;28;20233;-79
2024/01/11 04:49:54;;;;;;;137.07;24.80;;;-1.60;99.90;;;;;;5070992;28;20222;-78
2024/01/11 04:52:21;;;;;;;79.20;21.43;;;-1.60;99.90;;;;;;5079200;28;20614;-79
2024/01/11 04:54:48;;;;;;;58.37;19.23;;;-1.60;99.90;;;;;;5075137;28;20318;-79
2024/01/11 04:57:16;;;;;;;59.90;20.43;;;-1.60;99.90;;;;;;5072876;28;20229;-79
2024/01/11 04:59:44;;;;;;;34.67;19.33;;;-1.60;99.90;;;;;;5072441;28;20230;-79
2024/01/11 05:02:11;;;;;;;31.53;18.87;;;-1.60;99.90;;;;;;5074417;28;21016;-80
2024/01/11 05:04:38;;;;;;;49.23;19.70;;;-1.60;99.90;;;;;;5078929;28;20226;-80
2024/01/11 05:07:05;;;;;;;31.70;18.70;;;-1.70;99.90;;;;;;5096353;28;20294;-79
2024/01/11 05:09:32;;;;;;;45.53;20.07;;;-1.70;99.90;;;;;;5094845;28;20242;-80
2024/01/11 05:11:59;;;;;;;34.23;20.37;;;-1.70;99.90;;;;;;5070103;28;20893;-80
2024/01/11 05:14:26;;;;;;;85.90;23.40;;;-1.80;99.90;;;;;;5070811;27;20234;-80
2024/01/11 05:16:54;;;;;;;205.57;29.57;;;-1.70;99.90;;;;;;5081350;27;20217;-82
2024/01/11 05:19:21;;;;;;;112.87;24.20;;;-1.70;99.90;;;;;;5075272;28;20589;-83
2024/01/11 05:21:47;;;;;;;77.37;23.17;;;-1.80;99.90;;;;;;5083612;27;20230;-82
2024/01/11 05:24:14;;;;;;;46.80;22.33;;;-1.80;99.90;;;;;;5092109;28;20792;-81
2024/01/11 05:26:41;;;;;;;50.67;20.33;;;-1.80;99.90;;;;;;5078131;28;20313;-80
2024/01/11 05:29:09;;;;;;;83.80;22.17;;;-1.80;99.90;;;;;;5077466;28;20225;-81
2024/01/11 05:31:36;;;;;;;66.17;22.90;;;-1.80;99.90;;;;;;5114565;27;20236;-82
2024/01/11 05:34:04;;;;;;;124.60;23.23;;;-1.90;99.90;;;;;;5100243;28;20501;-81
2024/01/11 05:36:31;;;;;;;82.20;21.37;;;-1.90;99.90;;;;;;5102080;27;20211;-83
2024/01/11 05:38:58;;;;;;;155.57;25.67;;;-1.90;99.90;;;;;;5099230;28;20216;-83
2024/01/11 05:41:25;;;;;;;60.93;20.10;;;-1.90;99.90;;;;;;5102539;27;20225;-81
2024/01/11 05:43:51;;;;;;;32.63;19.13;;;-1.90;99.90;;;;;;5090439;28;20229;-82
2024/01/11 05:46:18;;;;;;;40.90;18.97;;;-1.90;99.90;;;;;;5097770;27;20637;-82
2024/01/11 05:48:45;;;;;;;75.30;20.73;;;-1.90;99.90;;;;;;5083266;27;20253;-84
2024/01/11 05:51:13;;;;;;;64.50;18.83;;;-1.90;99.90;;;;;;5087553;28;20684;-91
2024/01/11 05:53:40;;;;;;;79.60;20.13;;;-1.90;99.90;;;;;;5076948;28;20254;-81
2024/01/11 05:56:10;;;;;;;40.83;19.00;;;-1.90;99.90;;;;;;5080733;27;20222;-84
2024/01/11 05:58:37;;;;;;;50.10;19.73;;;-1.90;99.90;;;;;;5081884;27;20786;-81
2024/01/11 06:01:04;;;;;;;91.70;21.97;;;-1.80;99.90;;;;;;5078306;28;20231;-81
2024/01/11 06:03:33;;;;;;;51.43;19.03;;;-1.80;99.90;;;;;;5074744;28;20276;-82
2024/01/11 06:06:01;;;;;;;254.07;28.50;;;-1.80;99.90;;;;;;5077318;28;20924;-83
2024/01/11 06:08:31;;;;;;;115.70;23.30;;;-1.70;99.90;;;;;;5093994;28;20236;-81
2024/01/11 06:10:58;;;;;;;95.03;22.73;;;-1.80;99.90;;;;;;5078334;28;20867;-82
2024/01/11 06:13:25;;;;;;;58.20;20.60;;;-1.80;99.90;;;;;;5080247;27;20230;-81
2024/01/11 06:15:52;;;;;;;38.60;19.93;;;-1.70;99.90;;;;;;5076288;28;20312;-80
2024/01/11 06:18:19;;;;;;;104.80;23.70;;;-1.70;99.90;;;;;;5086548;28;20218;-81
2024/01/11 06:20:46;;;;;;;87.87;21.87;;;-1.70;99.90;;;;;;5101927;28;20240;-81
2024/01/11 06:23:13;;;;;;;121.77;24.47;;;-1.70;99.90;;;;;;5098459;28;20221;-81
2024/01/11 06:25:41;;;;;;;85.77;22.17;;;-1.70;99.90;;;;;;5093826;28;20756;-81
2024/01/11 06:28:10;;;;;;;94.87;22.10;;;-1.70;99.90;;;;;;5097737;28;20236;-83
2024/01/11 06:30:37;;;;;;;83.53;23.63;;;-1.70;99.90;;;;;;5096905;28;20240;-81
2024/01/11 06:33:04;;;;;;;73.17;21.07;;;-1.70;99.90;;;;;;5097890;27;20281;-81
2024/01/11 06:35:32;;;;;;;188.37;28.57;;;-1.70;99.90;;;;;;5085425;27;20283;-82
2024/01/11 06:37:58;;;;;;;207.20;29.97;;;-1.70;99.90;;;;;;5076710;28;20230;-83
2024/01/11 06:40:25;;;;;;;39.63;20.33;;;-1.60;99.90;;;;;;5081077;27;20733;-80
2024/01/11 06:42:54;;;;;;;44.43;20.43;;;-1.60;99.90;;;;;;5078952;27;20261;-82
2024/01/11 06:45:21;;;;;;;192.33;29.17;;;-1.60;99.90;;;;;;5074979;28;20233;-82
2024/01/11 06:47:48;;;;;;;189.37;28.43;;;-1.60;99.90;;;;;;5076640;28;20214;-81
2024/01/11 06:50:15;;;;;;;234.27;28.30;;;-1.60;99.90;;;;;;5075864;28;20220;-81
2024/01/11 06:52:42;;;;;;;187.53;26.53;;;-1.60;99.90;;;;;;5078523;28;20315;-83
2024/01/11 06:55:10;;;;;;;91.20;19.13;;;-1.60;99.90;;;;;;5076711;27;20307;-79
2024/01/11 06:57:37;;;;;;;218.70;26.47;;;-1.60;99.90;;;;;;5075626;28;20261;-81
2024/01/11 07:00:08;;;;;;;159.23;23.53;;;-1.60;99.90;;;;;;5076477;28;20237;-79
2024/01/11 07:02:35;;;;;;;127.53;21.20;;;-1.60;99.90;;;;;;5061791;27;20607;-79
2024/01/11 07:05:02;;;;;;;85.90;20.20;;;-1.60;99.90;;;;;;5082674;28;20233;-79
2024/01/11 07:07:29;;;;;;;90.57;21.70;;;-1.60;99.90;;;;;;5078715;28;20215;-80
2024/01/11 07:09:56;;;;;;;77.27;19.17;;;-1.60;99.90;;;;;;5085976;28;20263;-85
2024/01/11 07:12:23;;;;;;;44.07;18.20;;;-1.60;99.90;;;;;;5085611;28;20233;-79
2024/01/11 07:14:50;;;;;;;73.03;17.27;;;-1.60;99.90;;;;;;5080864;28;20227;-80
2024/01/11 07:17:18;;;;;;;52.33;17.37;;;-1.60;99.90;;;;;;5082342;28;20712;-79
2024/01/11 07:19:45;;;;;;;166.13;21.87;;;-1.60;99.90;;;;;;5085545;28;20229;-79
2024/01/11 07:22:12;;;;;;;223.10;24.57;;;-1.60;99.90;;;;;;5069733;27;20252;-79
2024/01/11 07:24:39;;;;;;;29.80;14.50;;;-1.60;99.90;;;;;;5114689;27;20225;-79
2024/01/11 07:27:05;;;;;;;40.03;16.00;;;-1.60;99.90;;;;;;5090720;27;20312;-79
2024/01/11 07:29:32;;;;;;;54.37;15.53;;;-1.60;99.90;;;;;;5085275;28;20219;-79
2024/01/11 07:31:59;;;;;;;42.60;14.77;;;-1.60;99.90;;;;;;5098094;28;20225;-80
2024/01/11 07:34:28;;;;;;;54.97;14.13;;;-1.60;99.90;;;;;;5079529;28;20223;-79
2024/01/11 07:36:54;;;;;;;36.17;13.93;;;-1.60;99.90;;;;;;5082776;28;20207;-79
2024/01/11 07:39:22;;;;;;;91.33;17.07;;;-1.50;99.90;;;;;;5095099;28;20229;-80
2024/01/11 07:41:49;;;;;;;298.10;27.37;;;-1.50;99.90;;;;;;5089392;28;20580;-79
2024/01/11 07:44:16;;;;;;;102.80;16.53;;;-1.50;99.90;;;;;;5082545;27;20227;-79
2024/01/11 07:46:43;;;;;;;85.07;17.90;;;-1.50;99.90;;;;;;5085438;28;20268;-79
2024/01/11 07:49:10;;;;;;;267.03;26.77;;;-1.50;99.90;;;;;;5085326;28;20316;-79
2024/01/11 07:51:39;;;;;;;355.87;35.67;;;-1.40;99.90;;;;;;5097646;27;20843;-79
2024/01/11 07:54:06;;;;;;;120.30;17.40;;;-1.40;99.90;;;;;;5082160;28;20286;-80
2024/01/11 07:56:34;;;;;;;198.83;21.80;;;-1.40;99.90;;;;;;5079251;28;20743;-80
2024/01/11 07:59:01;;;;;;;147.10;19.93;;;-1.40;99.90;;;;;;5085413;28;20218;-79
2024/01/11 08:01:28;;;;;;;44.73;13.63;;;-1.30;99.90;;;;;;5095143;28;21594;-80
2024/01/11 08:03:55;;;;;;;102.77;19.07;;;-1.30;99.90;;;;;;5105726;28;20699;-80
2024/01/11 08:06:22;;;;;;;44.53;14.27;;;-1.20;99.90;;;;;;5101398;28;20220;-80
2024/01/11 08:08:51;;;;;;;153.53;20.50;;;-1.20;99.90;;;;;;5078868;28;20569;-79
2024/01/11 08:11:19;;;;;;;59.17;16.33;;;-1.10;99.90;;;;;;5082076;28;20241;-82
2024/01/11 08:13:46;;;;;;;182.40;22.07;;;-1.10;99.90;;;;;;5081179;28;20222;-79
2024/01/11 08:16:17;;;;;;;74.03;15.73;;;-1.10;99.90;;;;;;5082967;28;20267;-81
2024/01/11 08:18:45;;;;;;;126.30;18.13;;;-1.00;99.90;;;;;;5100840;28;20993;-81
2024/01/11 08:21:12;;;;;;;26.77;12.83;;;-1.00;99.90;;;;;;5092343;28;20295;-80
2024/01/11 08:23:44;;;;;;;35.67;12.63;;;-1.00;99.90;;;;;;5083407;28;20221;-80
2024/01/11 08:26:13;;;;;;;27.47;12.20;;;-0.90;99.90;;;;;;5082561;28;20229;-81
2024/01/11 08:28:40;;;;;;;34.77;12.73;;;-0.90;99.90;;;;;;5083545;28;20250;-79
2024/01/11 08:31:08;;;;;;;157.73;18.77;;;-0.80;99.90;;;;;;5078874;28;20249;-80
2024/01/11 08:33:36;;;;;;;113.23;16.67;;;-0.80;99.90;;;;;;5089987;28;20228;-79
2024/01/11 08:36:04;;;;;;;188.27;20.13;;;-0.70;99.90;;;;;;5091090;28;20216;-80
2024/01/11 08:38:31;;;;;;;59.27;12.80;;;-0.70;99.90;;;;;;5103964;27;20231;-79
2024/01/11 08:40:59;;;;;;;213.13;21.37;;;-0.60;99.90;;;;;;5077822;28;20223;-81
2024/01/11 08:43:27;;;;;;;24.30;10.30;;;-0.60;99.90;;;;;;5076265;28;20238;-79
2024/01/11 08:45:55;;;;;;;210.87;21.43;;;-0.60;99.90;;;;;;5083959;27;20211;-79
2024/01/11 08:48:22;;;;;;;122.20;15.43;;;-0.50;99.90;;;;;;5062598;28;20233;-78
2024/01/11 08:50:48;;;;;;;146.20;16.33;;;-0.50;99.90;;;;;;5078496;28;20779;-79
2024/01/11 08:53:16;;;;;;;22.53;10.20;;;-0.40;99.90;;;;;;5088310;28;20658;-79
2024/01/11 08:55:43;;;;;;;59.07;11.50;;;-0.40;99.90;;;;;;5083035;27;20226;-78
2024/01/11 08:58:10;;;;;;;45.67;10.70;;;-0.40;99.90;;;;;;5084022;28;20219;-80
2024/01/11 09:00:38;;;;;;;20.27;9.77;;;-0.30;99.90;;;;;;5086306;28;20229;-80
2024/01/11 09:03:05;;;;;;;70.40;11.63;;;-0.30;99.90;;;;;;5080692;28;20223;-78
2024/01/11 09:05:32;;;;;;;51.23;11.03;;;-0.30;99.90;;;;;;5085143;28;20222;-78
2024/01/11 09:08:00;;;;;;;53.97;11.77;;;-0.30;99.90;;;;;;5097417;28;20686;-79
2024/01/11 09:10:27;;;;;;;23.67;9.87;;;-0.20;99.90;;;;;;5075040;28;20246;-79
2024/01/11 09:12:55;;;;;;;206.17;18.57;;;-0.20;99.90;;;;;;5085278;28;20227;-79
2024/01/11 09:15:21;;;;;;;23.80;10.13;;;-0.20;99.90;;;;;;5083230;28;20222;-79
2024/01/11 09:17:50;;;;;;;23.83;10.47;;;-0.10;99.90;;;;;;5117736;27;20284;-79
2024/01/11 09:20:18;;;;;;;21.83;8.70;;;-0.10;99.90;;;;;;5084629;28;20309;-79
2024/01/11 09:22:46;;;;;;;19.40;8.63;;;0.00;99.90;;;;;;5072768;28;20224;-78
2024/01/11 09:25:13;;;;;;;35.17;10.47;;;0.00;99.90;;;;;;5085252;28;20928;-80
2024/01/11 09:27:40;;;;;;;20.30;9.63;;;0.10;99.90;;;;;;5090580;28;20747;-79
2024/01/11 09:30:08;;;;;;;210.87;19.73;;;0.10;99.90;;;;;;5110078;27;20254;-78
2024/01/11 09:32:35;;;;;;;26.93;10.17;;;0.10;99.90;;;;;;5078984;28;20238;-78
2024/01/11 09:35:04;;;;;;;20.30;9.13;;;0.20;99.90;;;;;;5083951;28;20218;-79
2024/01/11 09:37:31;;;;;;;24.67;9.93;;;0.20;99.90;;;;;;5097708;28;20814;-79
2024/01/11 09:40:00;;;;;;;27.33;10.10;;;0.30;99.90;;;;;;5102075;28;20229;-78
2024/01/11 09:42:27;;;;;;;104.37;13.70;;;0.30;99.90;;;;;;5101064;27;20238;-78
2024/01/11 09:44:55;;;;;;;26.83;10.33;;;0.40;99.90;;;;;;5082901;28;20276;-78
2024/01/11 09:47:23;;;;;;;28.97;9.93;;;0.40;99.90;;;;;;5086599;27;20302;-78
2024/01/11 09:49:51;;;;;;;54.30;11.93;;;0.40;99.90;;;;;;5085467;27;20657;-78
2024/01/11 09:52:21;;;;;;;28.30;10.63;;;0.40;99.90;;;;;;5091049;28;20595;-78
2024/01/11 09:54:48;;;;;;;43.57;11.87;;;0.50;99.90;;;;;;5095914;27;20222;-79
2024/01/11 09:57:20;;;;;;;30.80;11.90;;;0.50;99.90;;;;;;5081515;27;20231;-78
2024/01/11 09:59:48;;;;;;;34.57;10.97;;;0.50;99.90;;;;;;5084842;28;20860;-79
2024/01/11 10:02:15;;;;;;;31.20;12.50;;;0.60;99.90;;;;;;5079839;28;20233;-78
2024/01/11 10:04:43;;;;;;;48.53;12.90;;;0.60;99.90;;;;;;5094979;27;20237;-78
2024/01/11 10:07:10;;;;;;;64.00;13.80;;;0.60;99.90;;;;;;5086310;27;20214;-80
2024/01/11 10:09:38;;;;;;;31.67;11.30;;;0.60;99.90;;;;;;5083767;27;20728;-79
2024/01/11 10:12:06;;;;;;;47.20;11.43;;;0.60;99.90;;;;;;5122326;27;20242;-78
2024/01/11 10:14:33;;;;;;;23.40;10.93;;;0.60;99.90;;;;;;5082205;28;20226;-79
2024/01/11 10:17:00;;;;;;;26.53;10.67;;;0.60;99.90;;;;;;5104138;28;20218;-78
2024/01/11 10:19:27;;;;;;;113.57;15.50;;;0.60;99.90;;;;;;5092438;27;20290;-78
2024/01/11 10:21:54;;;;;;;28.73;10.87;;;0.60;99.90;;;;;;5096977;27;20232;-78
2024/01/11 10:24:22;;;;;;;40.23;11.27;;;0.60;99.90;;;;;;5085258;28;20310;-78
2024/01/11 10:26:51;;;;;;;38.27;11.43;;;0.60;99.90;;;;;;5074487;28;20229;-78
2024/01/11 10:29:18;;;;;;;22.97;10.00;;;0.60;99.90;;;;;;5081974;28;20216;-79
2024/01/11 10:31:44;;;;;;;27.33;10.57;;;0.60;99.90;;;;;;5081340;28;20296;-80
2024/01/11 10:34:11;;;;;;;27.37;11.37;;;0.70;99.90;;;;;;5079491;27;20350;-78
2024/01/11 10:36:38;;;;;;;24.20;10.43;;;0.70;99.90;;;;;;5067923;28;20307;-78
2024/01/11 10:39:05;;;;;;;22.17;10.97;;;0.70;99.90;;;;;;5070447;28;20337;-79
2024/01/11 10:41:39;;;;;;;24.50;11.33;;;0.80;99.90;;;;;;5075618;27;20224;-79
2024/01/11 10:44:15;;;;;;;32.77;10.80;;;0.80;99.90;;;;;;5075925;27;20264;-79
2024/01/11 10:46:46;;;;;;;35.10;11.33;;;0.80;99.90;;;;;;5071219;27;20319;-78
2024/01/11 10:49:19;;;;;;;21.87;11.17;;;0.80;99.90;;;;;;5083564;27;20214;-78
2024/01/11 10:51:54;;;;;;;38.70;11.43;;;0.90;99.90;;;;;;5079106;28;20257;-78
2024/01/11 10:54:22;;;;;;;27.33;10.70;;;0.90;99.90;;;;;;5098415;28;20309;-78
2024/01/11 10:56:50;;;;;;;74.23;12.73;;;0.90;99.90;;;;;;5098555;27;20271;-78
2024/01/11 10:59:20;;;;;;;26.50;11.50;;;0.90;99.90;;;;;;5080920;28;21179;-78
2024/01/11 11:01:48;;;;;;;47.67;11.80;;;0.90;99.90;;;;;;5074404;28;20420;-78
2024/01/11 11:04:16;;;;;;;39.37;11.13;;;0.90;99.90;;;;;;5079148;28;20258;-78
2024/01/11 11:06:44;;;;;;;52.73;11.93;;;0.90;99.90;;;;;;5093001;28;20219;-78
2024/01/11 11:09:14;;;;;;;48.70;12.87;;;0.90;99.90;;;;;;5090070;27;20914;-78
2024/01/11 11:11:41;;;;;;;41.40;12.03;;;0.90;99.90;;;;;;5096524;28;20746;-78
2024/01/11 11:14:09;;;;;;;19.73;9.50;;;0.90;99.90;;;;;;5080247;28;20307;-78
2024/01/11 11:16:38;;;;;;;43.40;11.40;;;0.90;99.90;;;;;;5072899;27;20280;-79
2024/01/11 11:19:04;;;;;;;30.37;10.50;;;0.90;99.90;;;;;;5112938;27;20242;-78
2024/01/11 11:21:31;;;;;;;119.47;16.47;;;0.90;99.90;;;;;;5089109;28;20218;-79
2024/01/11 11:23:58;;;;;;;26.13;10.40;;;0.90;99.90;;;;;;5089039;28;20292;-80
2024/01/11 11:26:27;;;;;;;53.27;11.43;;;0.90;99.90;;;;;;5080536;27;20294;-79
2024/01/11 11:28:54;;;;;;;113.57;14.77;;;1.00;99.90;;;;;;5109493;27;20265;-79
2024/01/11 11:31:36;;;;;;;50.03;12.40;;;0.90;99.90;;;;;;5080215;28;20226;-79
2024/01/11 11:34:05;;;;;;;51.13;11.60;;;1.00;99.90;;;;;;5093577;28;20939;-79
2024/01/11 11:36:34;;;;;;;57.60;12.90;;;1.00;99.90;;;;;;5089108;28;20643;-79
2024/01/11 11:39:02;;;;;;;23.03;10.37;;;1.00;99.90;;;;;;5088127;28;20651;-80
2024/01/11 11:41:31;;;;;;;21.33;10.13;;;1.00;99.90;;;;;;5076850;27;20778;-80
2024/01/11 11:44:02;;;;;;;46.67;12.47;;;1.00;99.90;;;;;;5078128;28;20633;-80
2024/01/11 11:46:30;;;;;;;31.03;12.10;;;1.00;99.90;;;;;;5078125;28;20964;-80
2024/01/11 11:48:56;;;;;;;23.77;12.10;;;1.00;99.90;;;;;;5093389;28;20718;-79
2024/01/11 11:51:25;;;;;;;72.03;13.87;;;1.00;99.90;;;;;;5075520;28;20231;-80
2024/01/11 11:53:53;;;;;;;34.47;12.43;;;1.00;99.90;;;;;;5078321;28;20752;-79
2024/01/11 11:56:21;;;;;;;40.40;12.30;;;1.00;99.90;;;;;;5073843;28;20226;-80
2024/01/11 11:58:49;;;;;;;33.93;11.43;;;1.00;99.90;;;;;;5089062;27;20234;-80
2024/01/11 12:01:17;;;;;;;22.93;10.53;;;1.00;99.90;;;;;;5079625;28;20918;-80
2024/01/11 12:03:49;;;;;;;95.67;15.17;;;1.00;99.90;;;;;;5075499;28;20273;-80
2024/01/11 12:06:17;;;;;;;27.33;11.77;;;1.00;99.90;;;;;;5065704;28;20226;-79
2024/01/11 12:08:45;;;;;;;81.77;15.33;;;1.00;99.90;;;;;;5081834;28;20227;-80
2024/01/11 12:11:15;;;;;;;29.70;11.33;;;1.10;99.90;;;;;;5076981;28;20289;-80
2024/01/11 12:13:44;;;;;;;38.00;13.00;;;1.10;99.90;;;;;;5080579;28;20270;-79
2024/01/11 12:16:12;;;;;;;23.93;11.63;;;1.10;99.90;;;;;;5070951;28;20721;-80
2024/01/11 12:18:39;;;;;;;34.33;12.77;;;1.10;99.90;;;;;;5077200;28;20900;-80
2024/01/11 12:21:07;;;;;;;40.73;12.60;;;1.10;99.90;;;;;;5130895;27;21328;-80
2024/01/11 12:23:35;;;;;;;28.83;11.87;;;1.20;99.90;;;;;;5100510;27;20226;-80
2024/01/11 12:26:05;;;;;;;35.07;12.00;;;1.20;99.90;;;;;;5091756;28;20266;-79
2024/01/11 12:28:33;;;;;;;23.40;11.10;;;1.20;99.90;;;;;;5090049;28;20989;-80
2024/01/11 12:31:00;;;;;;;25.57;12.60;;;1.20;99.90;;;;;;5087135;27;20268;-80